메인 페이지
METAR-TAF:

METAR-TAF

공항 :

Monticello Municipal Airport/Ellis Field

Monticello, 아칸소, 미국

위도: 33-38-18N, 경도: 091-45-04W, 고도: 82m

현재 날씨관측

예보는 1 시간 2분 전, 18:53시(UTC)에 발표되었습니다.
남서8kt
온도 29°C
습도 55%
기압 1013 hPa
시정: 16.1km
맑음

METAR: KLLQ 171853Z AUTO 22008KT 10SM CLR 29/19 A2992 RMK AO2 SLP130 T02940194

시각: 14:55 (19:55 UTC)

예보

예보는 2 시간 25분 전, 17:30시(UTC)에 발표되었습니다.
예보 대상 시간: 17일 18시부터 18일 18시까지 (UTC)
남남서6kt, 순간 최대 풍속 16kt
시정: 10km
고도 2000ft 상공 구름 보통
고도 4000ft 상공 흐림
17일 2000시부터 (UTC)
남남서7kt
시정: 10km
고도 4000ft 상공 구름 많음, 적란운.
시계 내 뇌우
18일 0400시부터 (UTC)
3kt
시정: 9.7km
고도 25000ft 상공 구름 많음
박무
일시적
18일 09시부터 18일 13시까지 (UTC)
시정: 8.0km
박무
18일 1400시부터 (UTC)
서남서5kt
시정: 10km
고도 5000ft 상공 구름 많음

TAF: KLLQ 171730Z 1718/1818 20006G16KT P6SM SCT020 OVC040 FM172000 21007KT P6SM VCTS BKN040CB FM180400 19003KT 6SM BR BKN250 TEMPO 1809/1813 5SM BR FM181400 24005KT P6SM BKN050

4,000개 이상의 공항 관측 자료 및 예보 (METAR 및 TAF 보고).

지도상에서 검색 가능한 기상관측소가 노란 점과 빨간 점으로 표시되어 있습니다.

기상관측소 명을 보려면 표시 위로 마우스를 이동하세요.

날씨 관측과 예보를 보려면 클릭하세요.

지도 변경 : 확대하려면 엑스 표시가 있는 녹색 버튼, 축소하려면 빼기 표시가 있는 녹색 버튼, 다음 페이지의 지도를 보려면 녹색 화살표를 클릭하세요.


METAR-TAF: